createdAt,value
2018-09-17T00:02:04.234Z,98076.00
2018-09-17T00:04:34.499Z,98079.00
2018-09-17T00:07:11.339Z,98078.00
2018-09-17T00:09:41.849Z,98080.00
2018-09-17T00:12:12.238Z,98075.00
2018-09-17T00:14:42.819Z,98076.00
2018-09-17T00:17:13.210Z,98073.00
2018-09-17T00:19:43.564Z,98069.00
2018-09-17T00:22:13.866Z,98067.00
2018-09-17T00:24:44.487Z,98065.00
2018-09-17T00:27:15.030Z,98060.00
2018-09-17T00:29:45.496Z,98062.00
2018-09-17T00:32:15.859Z,98063.00
2018-09-17T00:34:46.480Z,98063.00
2018-09-17T00:37:16.846Z,98065.00
2018-09-17T00:39:47.312Z,98071.00
2018-09-17T00:42:17.664Z,98068.00
2018-09-17T00:44:48.236Z,98067.00
2018-09-17T00:47:18.596Z,98067.00
2018-09-17T00:49:51.883Z,98069.00
2018-09-17T00:52:22.454Z,98069.00
2018-09-17T00:54:52.924Z,98068.00
2018-09-17T00:57:23.351Z,98066.00
2018-09-17T00:59:53.896Z,98065.00
2018-09-17T01:02:24.258Z,98066.00
2018-09-17T01:04:54.931Z,98065.00
2018-09-17T01:07:25.264Z,98059.00
2018-09-17T01:09:55.671Z,98060.00
2018-09-17T01:12:26.262Z,98056.00
2018-09-17T01:14:56.780Z,98050.00
2018-09-17T01:17:27.277Z,98055.00
2018-09-17T01:19:57.898Z,98059.00
2018-09-17T01:22:28.124Z,98057.00
2018-09-17T01:24:58.452Z,98056.00
2018-09-17T01:27:28.926Z,98052.00
2018-09-17T01:29:59.430Z,98047.00
2018-09-17T01:32:30.039Z,98049.00
2018-09-17T01:35:00.370Z,98055.00
2018-09-17T01:37:30.754Z,98050.00
2018-09-17T01:40:00.747Z,98046.00
2018-09-17T01:42:30.704Z,98050.00
2018-09-17T01:45:00.724Z,98050.00
2018-09-17T01:47:30.707Z,98050.00
2018-09-17T01:50:01.352Z,98055.00
2018-09-17T01:52:31.440Z,98054.00
2018-09-17T01:55:01.450Z,98046.00
2018-09-17T01:57:31.610Z,98042.00
2018-09-17T02:00:01.671Z,98044.00
2018-09-17T02:02:31.756Z,98048.00
2018-09-17T02:05:02.067Z,98045.00
2018-09-17T02:07:32.406Z,98042.00
2018-09-17T02:10:03.029Z,98040.00
2018-09-17T02:12:33.343Z,98045.00
2018-09-17T02:15:03.918Z,98046.00
2018-09-17T02:17:34.406Z,98043.00
2018-09-17T02:20:04.747Z,98042.00
2018-09-17T02:22:34.766Z,98045.00
2018-09-17T02:25:05.192Z,98041.00
2018-09-17T02:27:35.597Z,98045.00
2018-09-17T02:30:05.662Z,98044.00
2018-09-17T02:32:36.075Z,98044.00
2018-09-17T02:35:06.622Z,98048.00
2018-09-17T02:37:37.128Z,98043.00
2018-09-17T02:40:11.466Z,98040.00
2018-09-17T02:42:42.120Z,98036.00
2018-09-17T02:45:12.559Z,98035.00
2018-09-17T02:47:43.233Z,98039.00
2018-09-17T02:50:13.590Z,98040.00
2018-09-17T02:52:43.987Z,98040.00
2018-09-17T02:55:14.418Z,98038.00
2018-09-17T02:57:44.741Z,98034.00
2018-09-17T03:00:19.413Z,98029.00
2018-09-17T03:02:52.224Z,98034.00
2018-09-17T03:05:22.665Z,98032.00
2018-09-17T03:07:52.954Z,98030.00
2018-09-17T03:10:23.375Z,98027.00
2018-09-17T03:12:53.811Z,98026.00
2018-09-17T03:15:40.595Z,98029.00
2018-09-17T03:18:14.059Z,98028.00
2018-09-17T03:20:44.639Z,98028.00
2018-09-17T03:23:15.151Z,98031.00
2018-09-17T03:25:45.600Z,98034.00
2018-09-17T03:28:16.032Z,98039.00
2018-09-17T03:30:46.443Z,98035.00
2018-09-17T03:33:16.987Z,98038.00
2018-09-17T03:35:47.572Z,98038.00
2018-09-17T03:38:35.213Z,98038.00
2018-09-17T03:41:06.623Z,98037.00
2018-09-17T03:43:38.043Z,98038.00
2018-09-17T03:46:08.592Z,98035.00
2018-09-17T03:48:39.811Z,98043.00
2018-09-17T03:51:10.837Z,98045.00
2018-09-17T03:53:41.419Z,98044.00
2018-09-17T03:56:11.842Z,98040.00
2018-09-17T03:58:42.498Z,98042.00
2018-09-17T04:01:12.957Z,98044.00
2018-09-17T04:03:46.101Z,98047.00
2018-09-17T04:06:16.668Z,98048.00
2018-09-17T04:08:47.174Z,98049.00
2018-09-17T04:11:17.331Z,98054.00
2018-09-17T04:13:47.927Z,98053.00
2018-09-17T04:16:18.483Z,98058.00
2018-09-17T04:18:48.883Z,98054.00
2018-09-17T04:21:19.195Z,98056.00
2018-09-17T04:23:50.138Z,98060.00
2018-09-17T04:26:20.742Z,98055.00
2018-09-17T04:28:51.207Z,98061.00
2018-09-17T04:31:21.452Z,98060.00
2018-09-17T04:33:52.058Z,98069.00
2018-09-17T04:36:22.171Z,98070.00
2018-09-17T04:38:52.328Z,98075.00
2018-09-17T04:41:22.500Z,98073.00
2018-09-17T04:43:52.505Z,98072.00
2018-09-17T04:46:22.603Z,98072.00
2018-09-17T04:48:52.609Z,98073.00
2018-09-17T04:51:22.595Z,98069.00
2018-09-17T04:53:52.605Z,98073.00
2018-09-17T04:56:22.638Z,98077.00
2018-09-17T04:58:52.977Z,98078.00
2018-09-17T05:01:23.273Z,98079.00
2018-09-17T05:03:53.553Z,98078.00
2018-09-17T05:06:23.931Z,98082.00
2018-09-17T05:08:54.492Z,98087.00
2018-09-17T05:11:24.985Z,98089.00
2018-09-17T05:13:55.560Z,98091.00
2018-09-17T05:16:26.052Z,98091.00
2018-09-17T05:18:56.471Z,98094.00
2018-09-17T05:21:26.726Z,98097.00
2018-09-17T05:23:57.250Z,98095.00
2018-09-17T05:26:27.371Z,98094.00
2018-09-17T05:28:57.696Z,98096.00
2018-09-17T05:31:28.142Z,98095.00
2018-09-17T05:33:58.653Z,98099.00
2018-09-17T05:36:29.122Z,98099.00
2018-09-17T05:38:59.508Z,98104.00
2018-09-17T05:41:29.864Z,98108.00
2018-09-17T05:44:00.476Z,98111.00
2018-09-17T05:46:31.087Z,98109.00
2018-09-17T05:49:04.860Z,98107.00
2018-09-17T05:51:35.217Z,98108.00
2018-09-17T05:54:05.619Z,98104.00
2018-09-17T05:56:35.975Z,98109.00
2018-09-17T05:59:06.587Z,98114.00
2018-09-17T06:01:36.979Z,98111.00
2018-09-17T06:04:07.395Z,98117.00
2018-09-17T06:06:37.884Z,98115.00
2018-09-17T06:09:12.501Z,98112.00
2018-09-17T06:11:42.865Z,98115.00
2018-09-17T06:14:13.391Z,98114.00
2018-09-17T06:16:44.064Z,98119.00
2018-09-17T06:19:14.935Z,98119.00
2018-09-17T06:21:45.501Z,98121.00
2018-09-17T06:24:16.100Z,98124.00
2018-09-17T06:26:46.798Z,98126.00
2018-09-17T06:29:17.357Z,98129.00
2018-09-17T06:31:47.711Z,98134.00
2018-09-17T06:34:18.084Z,98139.00
2018-09-17T06:36:48.654Z,98142.00
2018-09-17T06:39:18.816Z,98138.00
2018-09-17T06:41:49.285Z,98135.00
2018-09-17T06:44:20.044Z,98140.00
2018-09-17T06:46:50.488Z,98141.00
2018-09-17T06:49:20.974Z,98145.00
2018-09-17T06:51:51.714Z,98148.00
2018-09-17T06:54:22.073Z,98147.00
2018-09-17T06:56:53.280Z,98148.00
2018-09-17T06:59:23.723Z,98143.00
2018-09-17T07:01:54.143Z,98148.00
2018-09-17T07:04:24.452Z,98148.00
2018-09-17T07:06:54.960Z,98147.00
2018-09-17T07:09:25.614Z,98152.00
2018-09-17T07:11:55.971Z,98153.00
2018-09-17T07:14:29.350Z,98160.00
2018-09-17T07:16:59.949Z,98158.00
2018-09-17T07:19:30.201Z,98157.00
2018-09-17T07:22:00.461Z,98157.00
2018-09-17T07:24:31.045Z,98155.00
2018-09-17T07:27:01.450Z,98157.00
2018-09-17T07:29:31.797Z,98156.00
2018-09-17T07:32:02.313Z,98153.00
2018-09-17T07:34:32.723Z,98152.00
2018-09-17T07:37:03.199Z,98149.00
2018-09-17T07:39:33.853Z,98150.00
2018-09-17T07:42:04.472Z,98151.00
2018-09-17T07:44:35.004Z,98148.00
2018-09-17T07:47:05.621Z,98151.00
2018-09-17T07:49:35.945Z,98153.00
2018-09-17T07:52:06.369Z,98151.00
2018-09-17T07:54:36.927Z,98156.00
2018-09-17T07:57:07.642Z,98152.00
2018-09-17T07:59:37.850Z,98152.00
2018-09-17T08:02:08.180Z,98154.00
2018-09-17T08:04:38.720Z,98151.00
2018-09-17T08:07:09.232Z,98148.00
2018-09-17T08:09:39.707Z,98148.00
2018-09-17T08:12:10.124Z,98146.00
2018-09-17T08:14:40.723Z,98145.00
2018-09-17T08:17:11.109Z,98145.00
2018-09-17T08:19:41.608Z,98145.00
2018-09-17T08:22:11.568Z,98146.00
2018-09-17T08:24:41.545Z,98148.00
2018-09-17T08:27:11.555Z,98149.00
2018-09-17T08:29:41.541Z,98147.00
2018-09-17T08:32:11.529Z,98149.00
2018-09-17T08:34:41.616Z,98149.00
2018-09-17T08:37:11.596Z,98151.00
2018-09-17T08:39:48.108Z,98153.00
2018-09-17T08:42:18.085Z,98149.00
2018-09-17T08:44:48.063Z,98151.00
2018-09-17T08:47:18.051Z,98145.00
2018-09-17T08:49:48.092Z,98146.00
2018-09-17T08:52:18.394Z,98136.00
2018-09-17T08:54:53.385Z,98134.00
2018-09-17T08:57:28.452Z,98134.00
2018-09-17T09:00:03.617Z,98131.00
2018-09-17T09:02:38.696Z,98134.00
2018-09-17T09:05:40.396Z,98129.00
2018-09-17T09:08:10.375Z,98130.00
2018-09-17T09:10:54.497Z,98132.00
2018-09-17T09:13:29.764Z,98132.00
2018-09-17T09:16:00.064Z,98134.00
2018-09-17T09:18:30.507Z,98134.00
2018-09-17T09:21:00.820Z,98132.00
2018-09-17T09:23:31.376Z,98125.00
2018-09-17T09:26:01.593Z,98124.00
2018-09-17T09:28:31.673Z,98120.00
2018-09-17T09:31:01.694Z,98111.00
2018-09-17T09:33:31.856Z,98112.00
2018-09-17T09:36:02.523Z,98105.00
2018-09-17T09:38:32.592Z,98105.00
2018-09-17T09:41:02.659Z,98108.00
2018-09-17T09:43:33.618Z,98108.00
2018-09-17T09:46:04.020Z,98107.00
2018-09-17T09:48:34.666Z,98107.00
2018-09-17T09:51:05.047Z,98111.00
2018-09-17T09:53:35.358Z,98107.00
2018-09-17T09:56:05.880Z,98105.00
2018-09-17T09:58:37.557Z,98101.00
2018-09-17T10:01:13.569Z,98109.00
2018-09-17T10:03:44.994Z,98110.00
2018-09-17T10:06:16.537Z,98100.00
2018-09-17T10:08:51.975Z,98093.00
2018-09-17T10:11:27.190Z,98094.00
2018-09-17T10:14:02.356Z,98093.00
2018-09-17T10:16:32.698Z,98095.00
2018-09-17T10:19:07.761Z,98086.00
2018-09-17T10:21:38.227Z,98079.00
2018-09-17T10:24:09.747Z,98083.00
2018-09-17T10:26:40.002Z,98082.00
2018-09-17T10:29:10.490Z,98078.00
2018-09-17T10:31:41.763Z,98077.00
2018-09-17T10:34:12.284Z,98078.00
2018-09-17T10:36:42.761Z,98074.00
2018-09-17T10:39:14.261Z,98075.00
2018-09-17T10:41:44.638Z,98077.00
2018-09-17T10:44:15.015Z,98070.00
2018-09-17T10:46:45.558Z,98075.00
2018-09-17T10:49:15.973Z,98070.00
2018-09-17T10:51:46.003Z,98067.00
2018-09-17T10:54:16.032Z,98059.00
2018-09-17T10:56:46.148Z,98064.00
2018-09-17T10:59:16.172Z,98056.00
2018-09-17T11:01:46.222Z,98058.00
2018-09-17T11:04:16.236Z,98050.00
2018-09-17T11:06:46.363Z,98054.00
2018-09-17T11:09:16.372Z,98049.00
2018-09-17T11:11:46.367Z,98048.00
2018-09-17T11:14:16.443Z,98046.00
2018-09-17T11:16:46.522Z,98045.00
2018-09-17T11:19:17.130Z,98044.00
2018-09-17T11:21:47.334Z,98049.00
2018-09-17T11:24:17.712Z,98046.00
2018-09-17T11:26:48.318Z,98042.00
2018-09-17T11:29:18.934Z,98042.00
2018-09-17T11:31:49.436Z,98042.00
2018-09-17T11:34:26.164Z,98036.00
2018-09-17T11:36:56.160Z,98034.00
2018-09-17T11:39:26.170Z,98036.00
2018-09-17T11:41:56.187Z,98031.00
2018-09-17T11:44:26.751Z,98025.00
2018-09-17T11:46:56.764Z,98025.00
2018-09-17T11:49:26.858Z,98029.00
2018-09-17T11:51:56.835Z,98025.00
2018-09-17T11:54:27.200Z,98023.00
2018-09-17T11:56:57.712Z,98017.00
2018-09-17T11:59:27.711Z,98014.00
2018-09-17T12:02:02.815Z,98018.00
2018-09-17T12:04:37.956Z,98014.00
2018-09-17T12:07:13.068Z,98017.00
2018-09-17T12:09:43.149Z,98014.00
2018-09-17T12:12:13.225Z,98009.00
2018-09-17T12:14:43.244Z,98005.00
2018-09-17T12:17:13.236Z,98002.00
2018-09-17T12:19:43.240Z,97995.00
2018-09-17T12:22:13.268Z,97995.00
2018-09-17T12:24:43.356Z,97989.00
2018-09-17T12:27:13.371Z,97995.00
2018-09-17T12:29:43.353Z,97987.00
2018-09-17T12:32:13.342Z,97984.00
2018-09-17T12:34:43.374Z,97983.00
2018-09-17T12:37:13.480Z,97983.00
2018-09-17T12:39:43.582Z,97970.00
2018-09-17T12:42:13.568Z,97982.00
2018-09-17T12:44:43.595Z,97977.00
2018-09-17T12:47:13.593Z,97975.00
2018-09-17T12:49:43.590Z,97967.00
2018-09-17T12:52:13.571Z,97961.00
2018-09-17T12:54:43.557Z,97962.00
2018-09-17T12:57:13.597Z,97955.00
2018-09-17T12:59:43.564Z,97955.00
2018-09-17T13:02:13.564Z,97952.00
2018-09-17T13:04:43.603Z,97947.00
2018-09-17T13:07:13.632Z,97951.00
2018-09-17T13:09:43.619Z,97957.00
2018-09-17T13:12:14.091Z,97952.00
2018-09-17T13:14:44.159Z,97947.00
2018-09-17T13:17:14.119Z,97943.00
2018-09-17T13:19:44.184Z,97945.00
2018-09-17T13:22:14.192Z,97940.00
2018-09-17T13:24:44.192Z,97936.00
2018-09-17T13:27:14.176Z,97935.00
2018-09-17T13:29:44.424Z,97934.00
2018-09-17T13:32:14.429Z,97941.00
2018-09-17T13:34:44.511Z,97939.00
2018-09-17T13:37:14.594Z,97939.00
2018-09-17T13:39:44.721Z,97932.00
2018-09-17T13:42:14.707Z,97931.00
2018-09-17T13:44:44.762Z,97928.00
2018-09-17T13:47:14.802Z,97933.00
2018-09-17T13:49:44.884Z,97928.00
2018-09-17T13:52:14.877Z,97928.00
2018-09-17T13:54:44.895Z,97920.00
2018-09-17T13:57:14.959Z,97927.00
2018-09-17T13:59:44.984Z,97921.00
2018-09-17T14:02:15.033Z,97927.00
2018-09-17T14:04:45.066Z,97925.00
2018-09-17T14:07:15.123Z,97919.00
2018-09-17T14:09:45.158Z,97923.00
2018-09-17T14:12:15.222Z,97907.00
2018-09-17T14:14:45.297Z,97908.00
2018-09-17T14:17:15.389Z,97905.00
2018-09-17T14:19:45.549Z,97907.00
2018-09-17T14:22:15.602Z,97909.00
2018-09-17T14:24:45.720Z,97906.00
2018-09-17T14:27:15.833Z,97905.00
2018-09-17T14:29:45.917Z,97907.00
2018-09-17T14:32:21.091Z,97903.00
2018-09-17T14:34:51.070Z,97900.00
2018-09-17T14:37:21.205Z,97898.00
2018-09-17T14:39:51.238Z,97899.00
2018-09-17T14:42:21.271Z,97894.00
2018-09-17T14:44:51.308Z,97894.00
2018-09-17T14:47:21.298Z,97890.00
2018-09-17T14:49:51.529Z,97893.00
2018-09-17T14:52:21.663Z,97895.00
2018-09-17T14:54:51.709Z,97886.00
2018-09-17T14:57:21.776Z,97888.00
2018-09-17T14:59:51.829Z,97889.00
2018-09-17T15:02:21.885Z,97888.00
2018-09-17T15:04:51.931Z,97893.00
2018-09-17T15:07:22.487Z,97881.00
2018-09-17T15:09:52.539Z,97882.00
2018-09-17T15:12:22.565Z,97884.00
2018-09-17T15:14:52.656Z,97878.00
2018-09-17T15:17:22.799Z,97881.00
2018-09-17T15:19:52.866Z,97870.00
2018-09-17T15:22:23.005Z,97877.00
2018-09-17T15:24:53.143Z,97877.00
2018-09-17T15:27:23.134Z,97876.00
2018-09-17T15:29:53.172Z,97873.00
2018-09-17T15:32:23.352Z,97870.00
2018-09-17T15:34:53.352Z,97874.00
2018-09-17T15:37:23.492Z,97879.00
2018-09-17T15:39:53.576Z,97876.00
2018-09-17T15:42:23.622Z,97872.00
2018-09-17T15:44:53.687Z,97874.00
2018-09-17T15:47:23.688Z,97870.00
2018-09-17T15:49:53.787Z,97865.00
2018-09-17T15:52:23.820Z,97871.00
2018-09-17T15:54:53.839Z,97873.00
2018-09-17T15:57:23.884Z,97870.00
2018-09-17T15:59:54.008Z,97872.00
2018-09-17T16:02:24.106Z,97877.00
2018-09-17T16:04:54.731Z,97880.00
2018-09-17T16:07:24.719Z,97881.00
2018-09-17T16:09:54.788Z,97878.00
2018-09-17T16:12:24.859Z,97880.00
2018-09-17T16:14:54.959Z,97879.00
2018-09-17T16:17:24.927Z,97882.00
2018-09-17T16:19:55.017Z,97883.00
2018-09-17T16:22:25.068Z,97884.00
2018-09-17T16:24:55.235Z,97879.00
2018-09-17T16:27:25.312Z,97878.00
2018-09-17T16:29:55.351Z,97880.00
2018-09-17T16:32:25.352Z,97887.00
2018-09-17T16:34:55.569Z,97888.00
2018-09-17T16:37:25.580Z,97892.00
2018-09-17T16:39:55.631Z,97893.00
2018-09-17T16:42:25.668Z,97894.00
2018-09-17T16:44:55.829Z,97899.00
2018-09-17T16:47:25.841Z,97897.00
2018-09-17T16:49:56.043Z,97899.00
2018-09-17T16:52:26.054Z,97897.00
2018-09-17T16:54:56.099Z,97902.00
2018-09-17T16:57:26.643Z,97901.00
2018-09-17T16:59:56.800Z,97900.00
2018-09-17T17:02:26.932Z,97906.00
2018-09-17T17:04:57.805Z,97912.00
2018-09-17T17:07:27.699Z,97916.00
2018-09-17T17:09:57.775Z,97915.00
2018-09-17T17:12:27.806Z,97914.00
2018-09-17T17:14:57.861Z,97918.00
2018-09-17T17:17:27.832Z,97921.00
2018-09-17T17:19:57.970Z,97921.00
2018-09-17T17:22:28.061Z,97924.00
2018-09-17T17:24:58.080Z,97930.00
2018-09-17T17:27:28.172Z,97934.00
2018-09-17T17:29:58.168Z,97930.00
2018-09-17T17:32:28.181Z,97936.00
2018-09-17T17:34:58.189Z,97929.00
2018-09-17T17:37:28.178Z,97931.00
2018-09-17T17:39:58.334Z,97937.00
2018-09-17T17:42:28.543Z,97934.00
2018-09-17T17:44:58.676Z,97947.00
2018-09-17T17:47:28.751Z,97949.00
2018-09-17T17:49:58.780Z,97948.00
2018-09-17T17:52:29.507Z,97951.00
2018-09-17T17:54:59.601Z,97956.00
2018-09-17T17:57:29.579Z,97957.00
2018-09-17T17:59:59.643Z,97962.00
2018-09-17T18:02:29.623Z,97962.00
2018-09-17T18:04:59.617Z,97967.00
2018-09-17T18:07:29.660Z,97968.00
2018-09-17T18:09:59.727Z,97966.00
2018-09-17T18:12:29.754Z,97967.00
2018-09-17T18:14:59.808Z,97971.00
2018-09-17T18:17:29.836Z,97977.00
2018-09-17T18:19:59.880Z,97975.00
2018-09-17T18:22:29.884Z,97980.00
2018-09-17T18:25:00.233Z,97978.00
2018-09-17T18:27:30.756Z,97981.00
2018-09-17T18:30:01.373Z,97985.00
2018-09-17T18:32:32.006Z,97982.00
2018-09-17T18:35:07.621Z,97988.00
2018-09-17T18:37:38.204Z,97986.00
2018-09-17T18:40:08.723Z,97981.00
2018-09-17T18:42:39.037Z,97987.00
2018-09-17T18:45:09.818Z,97988.00
2018-09-17T18:47:40.328Z,97989.00
2018-09-17T18:50:10.868Z,97988.00
2018-09-17T18:52:44.169Z,97983.00
2018-09-17T18:55:14.694Z,97987.00
2018-09-17T18:57:45.222Z,97986.00
2018-09-17T19:00:16.034Z,97986.00
2018-09-17T19:02:46.279Z,97988.00
2018-09-17T19:05:17.020Z,97988.00
2018-09-17T19:07:56.227Z,97986.00
2018-09-17T19:10:26.568Z,97987.00
2018-09-17T19:12:57.217Z,97989.00
2018-09-17T19:15:32.853Z,97994.00
2018-09-17T19:18:07.798Z,97992.00
2018-09-17T19:20:38.706Z,97993.00
2018-09-17T19:30:21.098Z,97995.00
2018-09-17T19:32:51.488Z,97996.00
2018-09-17T19:35:21.498Z,97997.00
2018-09-17T19:37:56.700Z,97995.00
2018-09-17T19:40:26.595Z,98002.00
2018-09-17T19:42:56.592Z,97998.00
2018-09-17T19:45:31.794Z,97997.00
2018-09-17T19:48:01.823Z,98004.00
2018-09-17T19:50:36.948Z,98005.00
2018-09-17T19:53:07.019Z,98003.00
2018-09-17T19:55:37.052Z,98003.00
2018-09-17T19:58:12.135Z,98003.00
2018-09-17T20:00:42.203Z,98005.00
2018-09-17T20:03:12.317Z,98005.00
2018-09-17T20:05:47.494Z,98007.00
2018-09-17T20:08:17.510Z,98002.00
2018-09-17T20:10:47.703Z,98005.00
2018-09-17T20:13:17.687Z,98008.00
2018-09-17T20:15:47.829Z,98011.00
2018-09-17T20:18:17.838Z,98007.00
2018-09-17T20:20:48.014Z,98008.00
2018-09-17T20:23:18.146Z,98006.00
2018-09-17T20:25:48.068Z,98006.00
2018-09-17T20:28:18.002Z,98007.00
2018-09-17T20:30:48.055Z,98002.00
2018-09-17T20:33:18.199Z,98007.00
2018-09-17T20:35:48.324Z,98007.00
2018-09-17T20:38:18.511Z,98007.00
2018-09-17T20:40:48.580Z,98004.00
2018-09-17T20:43:18.581Z,98003.00
2018-09-17T20:45:48.635Z,98007.00
2018-09-17T20:48:18.988Z,98006.00
2018-09-17T20:50:49.231Z,98005.00
2018-09-17T20:53:19.278Z,98005.00
2018-09-17T20:55:49.252Z,97999.00
2018-09-17T20:58:19.350Z,98005.00
2018-09-17T21:00:49.443Z,98002.00
2018-09-17T21:03:19.466Z,98004.00
2018-09-17T21:05:49.976Z,98007.00
2018-09-17T21:08:20.546Z,98006.00
2018-09-17T21:10:51.202Z,98004.00
2018-09-17T21:13:21.607Z,98000.00
2018-09-17T21:15:52.031Z,98001.00
2018-09-17T21:18:23.070Z,98002.00
2018-09-17T21:20:53.646Z,98004.00
2018-09-17T21:23:24.197Z,98000.00
2018-09-17T21:25:54.503Z,97998.00
2018-09-17T21:28:24.956Z,97998.00
2018-09-17T21:30:55.588Z,98000.00
2018-09-17T21:33:26.148Z,98001.00
2018-09-17T21:35:56.667Z,98001.00
2018-09-17T21:38:27.192Z,97993.00
2018-09-17T21:40:57.503Z,97999.00
2018-09-17T21:43:27.912Z,97997.00
2018-09-17T21:45:58.318Z,97999.00
2018-09-17T21:48:28.874Z,98003.00
2018-09-17T21:50:59.278Z,97999.00
2018-09-17T21:53:29.636Z,98003.00
2018-09-17T21:56:00.104Z,97999.00
2018-09-17T21:58:30.525Z,98001.00
2018-09-17T22:01:03.043Z,97996.00
2018-09-17T22:03:35.226Z,97994.00
2018-09-17T22:06:05.556Z,97996.00
2018-09-17T22:08:36.083Z,97997.00
2018-09-17T22:11:06.439Z,97995.00
2018-09-17T22:13:36.808Z,97994.00
2018-09-17T22:16:07.198Z,97990.00
2018-09-17T22:18:37.617Z,97986.00
2018-09-17T22:21:07.991Z,97991.00
2018-09-17T22:23:38.298Z,97990.00
2018-09-17T22:26:08.600Z,97982.00
2018-09-17T22:28:39.108Z,97982.00
2018-09-17T22:31:09.526Z,97982.00
2018-09-17T22:33:40.048Z,97976.00
2018-09-17T22:36:10.557Z,97979.00
2018-09-17T22:38:40.750Z,97976.00
2018-09-17T22:41:10.754Z,97976.00
2018-09-17T22:43:41.255Z,97975.00
2018-09-17T22:46:11.212Z,97971.00
2018-09-17T22:48:41.234Z,97971.00
2018-09-17T22:51:11.192Z,97971.00
2018-09-17T22:53:41.288Z,97969.00
2018-09-17T22:56:11.364Z,97964.00
2018-09-17T22:58:41.363Z,97966.00
2018-09-17T23:01:11.552Z,97963.00
2018-09-17T23:03:42.001Z,97966.00
2018-09-17T23:06:12.403Z,97961.00
2018-09-17T23:08:42.812Z,97959.00
2018-09-17T23:11:13.271Z,97956.00
2018-09-17T23:13:43.763Z,97954.00
2018-09-17T23:16:14.163Z,97953.00
2018-09-17T23:18:44.694Z,97953.00
2018-09-17T23:21:15.085Z,97953.00
2018-09-17T23:23:45.374Z,97952.00
2018-09-17T23:26:15.842Z,97949.00
2018-09-17T23:28:46.355Z,97956.00
2018-09-17T23:31:16.787Z,97962.00
2018-09-17T23:33:47.129Z,97961.00
2018-09-17T23:36:17.633Z,97966.00
2018-09-17T23:38:47.666Z,97967.00
2018-09-17T23:41:18.083Z,97963.00
2018-09-17T23:43:48.644Z,97959.00
2018-09-17T23:46:18.946Z,97962.00
2018-09-17T23:48:49.289Z,97959.00
2018-09-17T23:51:19.740Z,97958.00
2018-09-17T23:53:50.176Z,97956.00
2018-09-17T23:56:20.144Z,97956.00
2018-09-17T23:58:50.304Z,97956.00
